Terminal Aerodrome Forecast
Issued by NWS

Home | Current Version | Previous Version | Text Only | Print | Product List | Glossary On
Versions: 1 2 3 4 5 6 7 8 9 10 11 12
611
FTUS45 KABQ 171741
TAFROW
TAF
KROW 171741Z 1718/1818 22010KT P6SM SKC
     FM172000 24015G25KT P6SM SKC
     FM180200 21011KT P6SM FEW110
     FM180700 33015G23KT P6SM SKC
     FM181600 01018G25KT P6SM SKC=

USA.gov is the U.S. government's official web portal to all federal, state and local government web resources and services.